sensor_id;sensor_type;location;lat;lon;timestamp;temperature;humidity
70550;DHT22;58101;48.658;2.328;2023-12-14T00:01:43;8.50;99.90
70550;DHT22;58101;48.658;2.328;2023-12-14T00:04:11;8.50;99.90
70550;DHT22;58101;48.658;2.328;2023-12-14T00:06:37;8.50;99.90
70550;DHT22;58101;48.658;2.328;2023-12-14T00:09:03;8.50;99.90
70550;DHT22;58101;48.658;2.328;2023-12-14T00:11:28;8.60;99.90
70550;DHT22;58101;48.658;2.328;2023-12-14T00:13:54;8.50;99.90
70550;DHT22;58101;48.658;2.328;2023-12-14T00:16:19;8.60;99.90
70550;DHT22;58101;48.658;2.328;2023-12-14T00:18:45;8.60;99.90
70550;DHT22;58101;48.658;2.328;2023-12-14T00:21:11;8.60;99.90
70550;DHT22;58101;48.658;2.328;2023-12-14T00:23:37;8.60;99.90
70550;DHT22;58101;48.658;2.328;2023-12-14T00:26:02;8.60;99.90
70550;DHT22;58101;48.658;2.328;2023-12-14T00:28:28;8.60;99.90
70550;DHT22;58101;48.658;2.328;2023-12-14T00:30:54;8.60;99.90
70550;DHT22;58101;48.658;2.328;2023-12-14T00:33:19;8.60;99.90
70550;DHT22;58101;48.658;2.328;2023-12-14T00:35:45;8.60;99.90
70550;DHT22;58101;48.658;2.328;2023-12-14T00:38:11;8.60;99.90
70550;DHT22;58101;48.658;2.328;2023-12-14T00:40:36;8.60;99.90
70550;DHT22;58101;48.658;2.328;2023-12-14T00:43:02;8.60;99.90
70550;DHT22;58101;48.658;2.328;2023-12-14T00:45:27;8.60;99.90
70550;DHT22;58101;48.658;2.328;2023-12-14T00:47:53;8.70;99.90
70550;DHT22;58101;48.658;2.328;2023-12-14T00:50:18;8.70;99.90
70550;DHT22;58101;48.658;2.328;2023-12-14T00:52:44;8.70;99.90
70550;DHT22;58101;48.658;2.328;2023-12-14T00:55:10;8.70;99.90
70550;DHT22;58101;48.658;2.328;2023-12-14T00:57:35;8.70;99.90
70550;DHT22;58101;48.658;2.328;2023-12-14T01:00:01;8.60;99.90
70550;DHT22;58101;48.658;2.328;2023-12-14T01:02:26;8.60;99.90
70550;DHT22;58101;48.658;2.328;2023-12-14T01:04:52;8.70;99.90
70550;DHT22;58101;48.658;2.328;2023-12-14T01:07:17;8.60;99.90
70550;DHT22;58101;48.658;2.328;2023-12-14T01:09:43;8.70;99.90
70550;DHT22;58101;48.658;2.328;2023-12-14T01:12:09;8.60;99.90
70550;DHT22;58101;48.658;2.328;2023-12-14T01:14:34;8.60;99.90
70550;DHT22;58101;48.658;2.328;2023-12-14T01:17:00;8.60;99.90
70550;DHT22;58101;48.658;2.328;2023-12-14T01:19:25;8.60;99.90
70550;DHT22;58101;48.658;2.328;2023-12-14T01:21:52;8.60;99.90
70550;DHT22;58101;48.658;2.328;2023-12-14T01:24:17;8.60;99.90
70550;DHT22;58101;48.658;2.328;2023-12-14T01:26:43;8.60;99.90
70550;DHT22;58101;48.658;2.328;2023-12-14T01:29:08;8.70;99.90
70550;DHT22;58101;48.658;2.328;2023-12-14T01:31:34;8.60;99.90
70550;DHT22;58101;48.658;2.328;2023-12-14T01:34:00;8.70;99.90
70550;DHT22;58101;48.658;2.328;2023-12-14T01:36:26;8.60;99.90
70550;DHT22;58101;48.658;2.328;2023-12-14T01:38:52;8.60;99.90
70550;DHT22;58101;48.658;2.328;2023-12-14T01:41:18;8.60;99.90
70550;DHT22;58101;48.658;2.328;2023-12-14T01:43:45;8.60;99.90
70550;DHT22;58101;48.658;2.328;2023-12-14T01:46:10;8.60;99.90
70550;DHT22;58101;48.658;2.328;2023-12-14T01:48:37;8.60;99.90
70550;DHT22;58101;48.658;2.328;2023-12-14T01:51:03;8.60;99.90
70550;DHT22;58101;48.658;2.328;2023-12-14T01:53:28;8.60;99.90
70550;DHT22;58101;48.658;2.328;2023-12-14T01:55:54;8.60;99.90
70550;DHT22;58101;48.658;2.328;2023-12-14T01:58:20;8.50;99.90
70550;DHT22;58101;48.658;2.328;2023-12-14T02:00:49;8.50;99.90
70550;DHT22;58101;48.658;2.328;2023-12-14T02:03:16;8.50;99.90
70550;DHT22;58101;48.658;2.328;2023-12-14T02:05:42;8.50;99.90
70550;DHT22;58101;48.658;2.328;2023-12-14T02:08:08;8.50;99.90
70550;DHT22;58101;48.658;2.328;2023-12-14T02:10:34;8.50;99.90
70550;DHT22;58101;48.658;2.328;2023-12-14T02:13:02;8.50;99.90
70550;DHT22;58101;48.658;2.328;2023-12-14T02:15:28;8.50;99.90
70550;DHT22;58101;48.658;2.328;2023-12-14T02:17:53;8.50;99.90
70550;DHT22;58101;48.658;2.328;2023-12-14T02:20:19;8.40;99.90
70550;DHT22;58101;48.658;2.328;2023-12-14T02:22:54;8.50;99.90
70550;DHT22;58101;48.658;2.328;2023-12-14T02:25:21;8.40;99.90
70550;DHT22;58101;48.658;2.328;2023-12-14T02:27:47;8.40;99.90
70550;DHT22;58101;48.658;2.328;2023-12-14T02:30:13;8.50;99.90
70550;DHT22;58101;48.658;2.328;2023-12-14T02:32:39;8.50;99.90
70550;DHT22;58101;48.658;2.328;2023-12-14T02:35:06;8.50;99.90
70550;DHT22;58101;48.658;2.328;2023-12-14T02:37:32;8.50;99.90
70550;DHT22;58101;48.658;2.328;2023-12-14T02:39:59;8.50;99.90
70550;DHT22;58101;48.658;2.328;2023-12-14T02:42:24;8.40;99.90
70550;DHT22;58101;48.658;2.328;2023-12-14T02:44:50;8.40;99.90
70550;DHT22;58101;48.658;2.328;2023-12-14T02:47:16;8.40;99.90
70550;DHT22;58101;48.658;2.328;2023-12-14T02:49:43;8.40;99.90
70550;DHT22;58101;48.658;2.328;2023-12-14T02:52:09;8.40;99.90
70550;DHT22;58101;48.658;2.328;2023-12-14T02:54:34;8.40;99.90
70550;DHT22;58101;48.658;2.328;2023-12-14T02:57:01;8.40;99.90
70550;DHT22;58101;48.658;2.328;2023-12-14T02:59:27;8.40;99.90
70550;DHT22;58101;48.658;2.328;2023-12-14T03:01:52;8.30;99.90
70550;DHT22;58101;48.658;2.328;2023-12-14T03:04:18;8.40;99.90
70550;DHT22;58101;48.658;2.328;2023-12-14T03:06:43;8.40;99.90
70550;DHT22;58101;48.658;2.328;2023-12-14T03:09:09;8.40;99.90
70550;DHT22;58101;48.658;2.328;2023-12-14T03:11:34;8.40;99.90
70550;DHT22;58101;48.658;2.328;2023-12-14T03:14:00;8.40;99.90
70550;DHT22;58101;48.658;2.328;2023-12-14T03:16:26;8.40;99.90
70550;DHT22;58101;48.658;2.328;2023-12-14T03:18:51;8.30;99.90
70550;DHT22;58101;48.658;2.328;2023-12-14T03:21:18;8.40;99.90
70550;DHT22;58101;48.658;2.328;2023-12-14T03:23:44;8.40;99.90
70550;DHT22;58101;48.658;2.328;2023-12-14T03:26:10;8.40;99.90
70550;DHT22;58101;48.658;2.328;2023-12-14T03:28:36;8.40;99.90
70550;DHT22;58101;48.658;2.328;2023-12-14T03:31:02;8.40;99.90
70550;DHT22;58101;48.658;2.328;2023-12-14T03:33:28;8.40;99.90
70550;DHT22;58101;48.658;2.328;2023-12-14T03:35:53;8.40;99.90
70550;DHT22;58101;48.658;2.328;2023-12-14T03:38:19;8.40;99.90
70550;DHT22;58101;48.658;2.328;2023-12-14T03:40:45;8.40;99.90
70550;DHT22;58101;48.658;2.328;2023-12-14T03:43:10;8.40;99.90
70550;DHT22;58101;48.658;2.328;2023-12-14T03:45:36;8.40;99.90
70550;DHT22;58101;48.658;2.328;2023-12-14T03:48:01;8.50;99.90
70550;DHT22;58101;48.658;2.328;2023-12-14T03:50:27;8.40;99.90
70550;DHT22;58101;48.658;2.328;2023-12-14T03:52:54;8.40;99.90
70550;DHT22;58101;48.658;2.328;2023-12-14T03:55:19;8.40;99.90
70550;DHT22;58101;48.658;2.328;2023-12-14T03:57:45;8.40;99.90
70550;DHT22;58101;48.658;2.328;2023-12-14T04:00:12;8.50;99.90
70550;DHT22;58101;48.658;2.328;2023-12-14T04:02:38;8.50;99.90
70550;DHT22;58101;48.658;2.328;2023-12-14T04:05:06;8.50;99.90
70550;DHT22;58101;48.658;2.328;2023-12-14T04:07:31;8.50;99.90
70550;DHT22;58101;48.658;2.328;2023-12-14T04:09:57;8.50;99.90
70550;DHT22;58101;48.658;2.328;2023-12-14T04:12:23;8.50;99.90
70550;DHT22;58101;48.658;2.328;2023-12-14T04:14:48;8.50;99.90
70550;DHT22;58101;48.658;2.328;2023-12-14T04:17:15;8.50;99.90
70550;DHT22;58101;48.658;2.328;2023-12-14T04:19:41;8.50;99.90
70550;DHT22;58101;48.658;2.328;2023-12-14T04:22:07;8.50;99.90
70550;DHT22;58101;48.658;2.328;2023-12-14T04:24:33;8.50;99.90
70550;DHT22;58101;48.658;2.328;2023-12-14T04:26:59;8.50;99.90
70550;DHT22;58101;48.658;2.328;2023-12-14T04:29:25;8.50;99.90
70550;DHT22;58101;48.658;2.328;2023-12-14T04:31:51;8.50;99.90
70550;DHT22;58101;48.658;2.328;2023-12-14T04:34:18;8.50;99.90
70550;DHT22;58101;48.658;2.328;2023-12-14T04:36:48;8.50;99.90
70550;DHT22;58101;48.658;2.328;2023-12-14T04:39:14;8.50;99.90
70550;DHT22;58101;48.658;2.328;2023-12-14T04:41:39;8.40;99.90
70550;DHT22;58101;48.658;2.328;2023-12-14T04:44:05;8.50;99.90
70550;DHT22;58101;48.658;2.328;2023-12-14T04:46:31;8.60;99.90
70550;DHT22;58101;48.658;2.328;2023-12-14T04:48:56;8.50;99.90
70550;DHT22;58101;48.658;2.328;2023-12-14T04:51:22;8.50;99.90
70550;DHT22;58101;48.658;2.328;2023-12-14T04:53:47;8.50;99.90
70550;DHT22;58101;48.658;2.328;2023-12-14T04:56:13;8.50;99.90
70550;DHT22;58101;48.658;2.328;2023-12-14T04:58:39;8.50;99.90
70550;DHT22;58101;48.658;2.328;2023-12-14T05:01:06;8.50;99.90
70550;DHT22;58101;48.658;2.328;2023-12-14T05:03:32;8.50;99.90
70550;DHT22;58101;48.658;2.328;2023-12-14T05:05:58;8.40;99.90
70550;DHT22;58101;48.658;2.328;2023-12-14T05:08:24;8.40;99.90
70550;DHT22;58101;48.658;2.328;2023-12-14T05:10:50;8.40;99.90
70550;DHT22;58101;48.658;2.328;2023-12-14T05:13:15;8.50;99.90
70550;DHT22;58101;48.658;2.328;2023-12-14T05:15:41;8.50;99.90
70550;DHT22;58101;48.658;2.328;2023-12-14T05:18:07;8.40;99.90
70550;DHT22;58101;48.658;2.328;2023-12-14T05:20:32;8.50;99.90
70550;DHT22;58101;48.658;2.328;2023-12-14T05:22:58;8.40;99.90
70550;DHT22;58101;48.658;2.328;2023-12-14T05:25:23;8.50;99.90
70550;DHT22;58101;48.658;2.328;2023-12-14T05:27:49;8.40;99.90
70550;DHT22;58101;48.658;2.328;2023-12-14T05:30:14;8.40;99.90
70550;DHT22;58101;48.658;2.328;2023-12-14T05:32:40;8.40;99.90
70550;DHT22;58101;48.658;2.328;2023-12-14T05:35:06;8.40;99.90
70550;DHT22;58101;48.658;2.328;2023-12-14T05:37:32;8.40;99.90
70550;DHT22;58101;48.658;2.328;2023-12-14T05:39:57;8.40;99.90
70550;DHT22;58101;48.658;2.328;2023-12-14T05:42:23;8.40;99.90
70550;DHT22;58101;48.658;2.328;2023-12-14T05:44:49;8.40;99.90
70550;DHT22;58101;48.658;2.328;2023-12-14T05:47:14;8.40;99.90
70550;DHT22;58101;48.658;2.328;2023-12-14T05:49:43;8.40;99.90
70550;DHT22;58101;48.658;2.328;2023-12-14T05:52:09;8.40;99.90
70550;DHT22;58101;48.658;2.328;2023-12-14T05:54:38;8.40;99.90
70550;DHT22;58101;48.658;2.328;2023-12-14T05:57:05;8.40;99.90
70550;DHT22;58101;48.658;2.328;2023-12-14T05:59:31;8.40;99.90
70550;DHT22;58101;48.658;2.328;2023-12-14T06:01:57;8.60;99.90
70550;DHT22;58101;48.658;2.328;2023-12-14T06:04:23;8.40;99.90
70550;DHT22;58101;48.658;2.328;2023-12-14T06:06:49;8.40;99.90
70550;DHT22;58101;48.658;2.328;2023-12-14T06:09:15;8.40;99.90
70550;DHT22;58101;48.658;2.328;2023-12-14T06:11:40;8.50;99.90
70550;DHT22;58101;48.658;2.328;2023-12-14T06:14:06;8.50;99.90
70550;DHT22;58101;48.658;2.328;2023-12-14T06:16:31;8.50;99.90
70550;DHT22;58101;48.658;2.328;2023-12-14T06:18:57;8.50;99.90
70550;DHT22;58101;48.658;2.328;2023-12-14T06:21:23;8.60;99.90
70550;DHT22;58101;48.658;2.328;2023-12-14T06:23:51;8.50;99.90
70550;DHT22;58101;48.658;2.328;2023-12-14T06:26:17;8.50;99.90
70550;DHT22;58101;48.658;2.328;2023-12-14T06:28:43;8.50;99.90
70550;DHT22;58101;48.658;2.328;2023-12-14T06:31:15;8.50;99.90
70550;DHT22;58101;48.658;2.328;2023-12-14T06:33:41;8.50;99.90
70550;DHT22;58101;48.658;2.328;2023-12-14T06:36:08;8.50;99.90
70550;DHT22;58101;48.658;2.328;2023-12-14T06:38:34;8.50;99.90
70550;DHT22;58101;48.658;2.328;2023-12-14T06:41:00;8.50;99.90
70550;DHT22;58101;48.658;2.328;2023-12-14T06:43:27;8.50;99.90
70550;DHT22;58101;48.658;2.328;2023-12-14T06:45:53;8.40;99.90
70550;DHT22;58101;48.658;2.328;2023-12-14T06:48:19;8.40;99.90
70550;DHT22;58101;48.658;2.328;2023-12-14T06:50:45;8.40;99.90
70550;DHT22;58101;48.658;2.328;2023-12-14T06:53:10;8.40;99.90
70550;DHT22;58101;48.658;2.328;2023-12-14T06:55:36;8.40;99.90
70550;DHT22;58101;48.658;2.328;2023-12-14T06:58:02;8.40;99.90
70550;DHT22;58101;48.658;2.328;2023-12-14T07:00:27;8.40;99.90
70550;DHT22;58101;48.658;2.328;2023-12-14T07:02:54;8.40;99.90
70550;DHT22;58101;48.658;2.328;2023-12-14T07:05:20;8.40;99.90
70550;DHT22;58101;48.658;2.328;2023-12-14T07:07:46;8.40;99.90
70550;DHT22;58101;48.658;2.328;2023-12-14T07:10:11;8.40;99.90
70550;DHT22;58101;48.658;2.328;2023-12-14T07:12:37;8.40;99.90
70550;DHT22;58101;48.658;2.328;2023-12-14T07:15:03;8.40;99.90
70550;DHT22;58101;48.658;2.328;2023-12-14T07:17:28;8.40;99.90
70550;DHT22;58101;48.658;2.328;2023-12-14T07:19:54;8.40;99.90
70550;DHT22;58101;48.658;2.328;2023-12-14T07:22:20;8.40;99.90
70550;DHT22;58101;48.658;2.328;2023-12-14T07:24:45;8.40;99.90
70550;DHT22;58101;48.658;2.328;2023-12-14T07:27:11;8.40;99.90
70550;DHT22;58101;48.658;2.328;2023-12-14T07:29:36;8.40;99.90
70550;DHT22;58101;48.658;2.328;2023-12-14T07:32:02;8.40;99.90
70550;DHT22;58101;48.658;2.328;2023-12-14T07:34:28;8.40;99.90
70550;DHT22;58101;48.658;2.328;2023-12-14T07:36:54;8.40;99.90
70550;DHT22;58101;48.658;2.328;2023-12-14T07:39:20;8.40;99.90
70550;DHT22;58101;48.658;2.328;2023-12-14T07:41:45;8.40;99.90
70550;DHT22;58101;48.658;2.328;2023-12-14T07:44:11;8.50;99.90
70550;DHT22;58101;48.658;2.328;2023-12-14T07:46:37;8.40;99.90
70550;DHT22;58101;48.658;2.328;2023-12-14T07:49:06;8.50;99.90
70550;DHT22;58101;48.658;2.328;2023-12-14T07:51:32;8.50;99.90
70550;DHT22;58101;48.658;2.328;2023-12-14T07:53:58;8.50;99.90
70550;DHT22;58101;48.658;2.328;2023-12-14T07:56:23;8.50;99.90
70550;DHT22;58101;48.658;2.328;2023-12-14T07:58:53;8.50;99.90
70550;DHT22;58101;48.658;2.328;2023-12-14T08:01:18;8.50;99.90
70550;DHT22;58101;48.658;2.328;2023-12-14T08:03:45;8.50;99.90
70550;DHT22;58101;48.658;2.328;2023-12-14T08:06:11;8.50;99.90
70550;DHT22;58101;48.658;2.328;2023-12-14T08:08:37;8.50;99.90
70550;DHT22;58101;48.658;2.328;2023-12-14T08:11:04;8.50;99.90
70550;DHT22;58101;48.658;2.328;2023-12-14T08:13:30;8.50;99.90
70550;DHT22;58101;48.658;2.328;2023-12-14T08:15:56;8.50;99.90
70550;DHT22;58101;48.658;2.328;2023-12-14T08:18:21;8.50;99.90
70550;DHT22;58101;48.658;2.328;2023-12-14T08:20:47;8.50;99.90
70550;DHT22;58101;48.658;2.328;2023-12-14T08:23:12;8.50;99.90
70550;DHT22;58101;48.658;2.328;2023-12-14T08:25:38;8.50;99.90
70550;DHT22;58101;48.658;2.328;2023-12-14T08:28:04;8.50;99.90
70550;DHT22;58101;48.658;2.328;2023-12-14T08:30:30;8.50;99.90
70550;DHT22;58101;48.658;2.328;2023-12-14T08:32:55;8.50;99.90
70550;DHT22;58101;48.658;2.328;2023-12-14T08:35:21;8.60;99.90
70550;DHT22;58101;48.658;2.328;2023-12-14T08:37:47;8.40;99.90
70550;DHT22;58101;48.658;2.328;2023-12-14T08:40:12;8.40;99.90
70550;DHT22;58101;48.658;2.328;2023-12-14T08:42:38;8.40;99.90
70550;DHT22;58101;48.658;2.328;2023-12-14T08:45:04;8.40;99.90
70550;DHT22;58101;48.658;2.328;2023-12-14T08:47:30;8.40;99.90
70550;DHT22;58101;48.658;2.328;2023-12-14T08:49:55;8.50;99.90
70550;DHT22;58101;48.658;2.328;2023-12-14T08:52:21;8.50;99.90
70550;DHT22;58101;48.658;2.328;2023-12-14T08:54:47;8.40;99.90
70550;DHT22;58101;48.658;2.328;2023-12-14T08:57:12;8.50;99.90
70550;DHT22;58101;48.658;2.328;2023-12-14T08:59:38;8.40;99.90
70550;DHT22;58101;48.658;2.328;2023-12-14T09:02:04;8.50;99.90
70550;DHT22;58101;48.658;2.328;2023-12-14T09:04:30;8.50;99.90
70550;DHT22;58101;48.658;2.328;2023-12-14T09:06:55;8.50;99.90
70550;DHT22;58101;48.658;2.328;2023-12-14T09:09:21;8.50;99.90
70550;DHT22;58101;48.658;2.328;2023-12-14T09:11:47;8.50;99.90
70550;DHT22;58101;48.658;2.328;2023-12-14T09:14:12;8.50;99.90
70550;DHT22;58101;48.658;2.328;2023-12-14T09:16:38;8.50;99.90
70550;DHT22;58101;48.658;2.328;2023-12-14T09:19:03;8.50;99.90
70550;DHT22;58101;48.658;2.328;2023-12-14T09:21:29;8.50;99.90
70550;DHT22;58101;48.658;2.328;2023-12-14T09:23:55;8.60;99.90
70550;DHT22;58101;48.658;2.328;2023-12-14T09:26:21;8.60;99.90
70550;DHT22;58101;48.658;2.328;2023-12-14T09:28:46;8.60;99.90
70550;DHT22;58101;48.658;2.328;2023-12-14T09:31:12;8.60;99.90
70550;DHT22;58101;48.658;2.328;2023-12-14T09:33:37;8.80;99.90
70550;DHT22;58101;48.658;2.328;2023-12-14T09:36:04;8.60;99.90
70550;DHT22;58101;48.658;2.328;2023-12-14T09:38:29;8.70;99.90
70550;DHT22;58101;48.658;2.328;2023-12-14T09:40:55;8.70;99.90
70550;DHT22;58101;48.658;2.328;2023-12-14T09:43:22;8.70;99.90
70550;DHT22;58101;48.658;2.328;2023-12-14T09:45:49;8.80;99.90
70550;DHT22;58101;48.658;2.328;2023-12-14T09:48:16;8.80;99.90
70550;DHT22;58101;48.658;2.328;2023-12-14T09:50:41;8.90;99.90
70550;DHT22;58101;48.658;2.328;2023-12-14T09:53:10;8.80;99.90
70550;DHT22;58101;48.658;2.328;2023-12-14T09:55:36;8.80;99.90
70550;DHT22;58101;48.658;2.328;2023-12-14T09:58:01;8.80;99.90
70550;DHT22;58101;48.658;2.328;2023-12-14T10:00:37;8.80;99.90
70550;DHT22;58101;48.658;2.328;2023-12-14T10:03:25;8.90;99.90
70550;DHT22;58101;48.658;2.328;2023-12-14T10:05:58;8.90;99.90
70550;DHT22;58101;48.658;2.328;2023-12-14T10:08:25;9.00;99.90
70550;DHT22;58101;48.658;2.328;2023-12-14T10:10:52;9.20;99.90
70550;DHT22;58101;48.658;2.328;2023-12-14T10:13:19;9.10;99.90
70550;DHT22;58101;48.658;2.328;2023-12-14T10:15:46;9.10;99.90
70550;DHT22;58101;48.658;2.328;2023-12-14T10:18:16;9.20;99.90
70550;DHT22;58101;48.658;2.328;2023-12-14T10:20:42;9.20;99.90
70550;DHT22;58101;48.658;2.328;2023-12-14T10:23:10;9.20;99.90
70550;DHT22;58101;48.658;2.328;2023-12-14T10:25:37;9.30;99.90
70550;DHT22;58101;48.658;2.328;2023-12-14T10:28:02;9.20;99.90
70550;DHT22;58101;48.658;2.328;2023-12-14T10:30:28;9.30;99.90
70550;DHT22;58101;48.658;2.328;2023-12-14T10:32:54;9.30;99.90
70550;DHT22;58101;48.658;2.328;2023-12-14T10:35:20;9.50;99.90
70550;DHT22;58101;48.658;2.328;2023-12-14T10:37:50;9.90;99.90
70550;DHT22;58101;48.658;2.328;2023-12-14T10:40:16;10.30;99.90
70550;DHT22;58101;48.658;2.328;2023-12-14T10:42:43;10.90;99.90
70550;DHT22;58101;48.658;2.328;2023-12-14T10:45:13;11.30;99.90
70550;DHT22;58101;48.658;2.328;2023-12-14T10:47:45;11.80;99.90
70550;DHT22;58101;48.658;2.328;2023-12-14T10:50:11;12.10;99.90
70550;DHT22;58101;48.658;2.328;2023-12-14T10:52:38;12.30;99.90
70550;DHT22;58101;48.658;2.328;2023-12-14T10:55:07;12.40;99.90
70550;DHT22;58101;48.658;2.328;2023-12-14T10:57:36;12.40;99.90
70550;DHT22;58101;48.658;2.328;2023-12-14T11:00:05;12.30;99.90
70550;DHT22;58101;48.658;2.328;2023-12-14T11:02:45;12.10;99.90
70550;DHT22;58101;48.658;2.328;2023-12-14T11:05:16;11.80;99.90
70550;DHT22;58101;48.658;2.328;2023-12-14T11:07:52;11.60;99.90
70550;DHT22;58101;48.658;2.328;2023-12-14T11:10:23;11.40;99.90
70550;DHT22;58101;48.658;2.328;2023-12-14T11:13:12;11.20;99.90
70550;DHT22;58101;48.658;2.328;2023-12-14T11:15:49;11.10;99.90
70550;DHT22;58101;48.658;2.328;2023-12-14T11:20:49;10.80;99.90
70550;DHT22;58101;48.658;2.328;2023-12-14T11:25:55;10.40;99.90
70550;DHT22;58101;48.658;2.328;2023-12-14T11:28:22;10.20;99.90
70550;DHT22;58101;48.658;2.328;2023-12-14T11:30:48;10.00;99.90
70550;DHT22;58101;48.658;2.328;2023-12-14T11:33:14;9.90;99.90
70550;DHT22;58101;48.658;2.328;2023-12-14T11:35:40;9.70;99.90
70550;DHT22;58101;48.658;2.328;2023-12-14T11:38:06;9.80;99.90
70550;DHT22;58101;48.658;2.328;2023-12-14T11:40:42;9.60;99.90
70550;DHT22;58101;48.658;2.328;2023-12-14T11:43:08;9.50;99.90
70550;DHT22;58101;48.658;2.328;2023-12-14T11:45:38;9.50;99.90
70550;DHT22;58101;48.658;2.328;2023-12-14T11:48:09;9.50;99.90
70550;DHT22;58101;48.658;2.328;2023-12-14T11:50:39;9.50;99.90
70550;DHT22;58101;48.658;2.328;2023-12-14T11:53:05;9.50;99.90
70550;DHT22;58101;48.658;2.328;2023-12-14T11:55:33;9.80;99.90
70550;DHT22;58101;48.658;2.328;2023-12-14T11:57:59;10.80;99.90
70550;DHT22;58101;48.658;2.328;2023-12-14T12:00:26;12.10;99.90
70550;DHT22;58101;48.658;2.328;2023-12-14T12:02:52;13.10;99.90
70550;DHT22;58101;48.658;2.328;2023-12-14T12:05:36;13.80;99.90
70550;DHT22;58101;48.658;2.328;2023-12-14T12:08:02;13.90;96.10
70550;DHT22;58101;48.658;2.328;2023-12-14T12:10:28;13.90;91.80
70550;DHT22;58101;48.658;2.328;2023-12-14T12:13:07;13.50;90.20
70550;DHT22;58101;48.658;2.328;2023-12-14T12:15:34;13.30;92.90
70550;DHT22;58101;48.658;2.328;2023-12-14T12:18:12;13.40;94.40
70550;DHT22;58101;48.658;2.328;2023-12-14T12:20:38;14.10;92.10
70550;DHT22;58101;48.658;2.328;2023-12-14T12:23:03;15.30;91.50
70550;DHT22;58101;48.658;2.328;2023-12-14T12:25:30;16.40;82.50
70550;DHT22;58101;48.658;2.328;2023-12-14T12:28:00;17.20;73.70
70550;DHT22;58101;48.658;2.328;2023-12-14T12:30:27;17.40;69.10
70550;DHT22;58101;48.658;2.328;2023-12-14T12:32:53;17.40;65.50
70550;DHT22;58101;48.658;2.328;2023-12-14T12:35:20;17.00;66.10
70550;DHT22;58101;48.658;2.328;2023-12-14T12:37:46;16.40;66.50
70550;DHT22;58101;48.658;2.328;2023-12-14T12:40:12;15.60;68.20
70550;DHT22;58101;48.658;2.328;2023-12-14T12:42:40;15.10;71.60
70550;DHT22;58101;48.658;2.328;2023-12-14T12:45:06;14.50;73.50
70550;DHT22;58101;48.658;2.328;2023-12-14T12:47:32;13.90;77.70
70550;DHT22;58101;48.658;2.328;2023-12-14T12:49:58;13.40;84.60
70550;DHT22;58101;48.658;2.328;2023-12-14T12:52:23;12.90;90.00
70550;DHT22;58101;48.658;2.328;2023-12-14T12:54:49;12.50;92.90
70550;DHT22;58101;48.658;2.328;2023-12-14T12:57:15;12.20;95.50
70550;DHT22;58101;48.658;2.328;2023-12-14T12:59:40;11.80;96.00
70550;DHT22;58101;48.658;2.328;2023-12-14T13:02:06;11.50;96.20
70550;DHT22;58101;48.658;2.328;2023-12-14T13:04:32;11.20;99.40
70550;DHT22;58101;48.658;2.328;2023-12-14T13:06:58;11.10;99.90
70550;DHT22;58101;48.658;2.328;2023-12-14T13:09:24;10.80;99.90
70550;DHT22;58101;48.658;2.328;2023-12-14T13:11:50;10.60;99.90
70550;DHT22;58101;48.658;2.328;2023-12-14T13:14:16;10.50;99.90
70550;DHT22;58101;48.658;2.328;2023-12-14T13:16:42;10.40;99.90
70550;DHT22;58101;48.658;2.328;2023-12-14T13:19:08;10.30;99.90
70550;DHT22;58101;48.658;2.328;2023-12-14T13:21:35;10.20;99.90
70550;DHT22;58101;48.658;2.328;2023-12-14T13:24:01;10.10;99.90
70550;DHT22;58101;48.658;2.328;2023-12-14T13:26:26;10.10;99.90
70550;DHT22;58101;48.658;2.328;2023-12-14T13:28:52;10.00;99.90
70550;DHT22;58101;48.658;2.328;2023-12-14T13:31:18;9.90;99.90
70550;DHT22;58101;48.658;2.328;2023-12-14T13:33:46;9.90;99.90
70550;DHT22;58101;48.658;2.328;2023-12-14T13:36:11;9.80;99.90
70550;DHT22;58101;48.658;2.328;2023-12-14T13:38:37;9.80;99.90
70550;DHT22;58101;48.658;2.328;2023-12-14T13:41:03;9.80;99.90
70550;DHT22;58101;48.658;2.328;2023-12-14T13:43:29;9.80;99.90
70550;DHT22;58101;48.658;2.328;2023-12-14T13:45:55;9.80;99.90
70550;DHT22;58101;48.658;2.328;2023-12-14T13:48:24;9.80;99.90
70550;DHT22;58101;48.658;2.328;2023-12-14T13:50:50;9.80;99.90
70550;DHT22;58101;48.658;2.328;2023-12-14T13:53:16;9.80;99.90
70550;DHT22;58101;48.658;2.328;2023-12-14T13:55:41;9.80;99.90
70550;DHT22;58101;48.658;2.328;2023-12-14T13:58:07;9.80;99.90
70550;DHT22;58101;48.658;2.328;2023-12-14T14:00:33;9.90;99.90
70550;DHT22;58101;48.658;2.328;2023-12-14T14:03:00;9.90;99.90
70550;DHT22;58101;48.658;2.328;2023-12-14T14:05:26;9.90;99.90
70550;DHT22;58101;48.658;2.328;2023-12-14T14:07:52;9.90;99.90
70550;DHT22;58101;48.658;2.328;2023-12-14T14:10:19;9.90;99.90
70550;DHT22;58101;48.658;2.328;2023-12-14T14:12:45;9.90;99.90
70550;DHT22;58101;48.658;2.328;2023-12-14T14:15:11;9.90;99.90
70550;DHT22;58101;48.658;2.328;2023-12-14T14:17:37;9.90;99.90
70550;DHT22;58101;48.658;2.328;2023-12-14T14:20:03;9.90;99.90
70550;DHT22;58101;48.658;2.328;2023-12-14T14:22:30;9.80;99.90
70550;DHT22;58101;48.658;2.328;2023-12-14T14:24:56;9.80;99.90
70550;DHT22;58101;48.658;2.328;2023-12-14T14:27:22;9.70;99.90
70550;DHT22;58101;48.658;2.328;2023-12-14T14:29:49;9.70;99.90
70550;DHT22;58101;48.658;2.328;2023-12-14T14:32:14;9.60;99.90
70550;DHT22;58101;48.658;2.328;2023-12-14T14:34:40;9.70;99.90
70550;DHT22;58101;48.658;2.328;2023-12-14T14:37:06;9.60;99.90
70550;DHT22;58101;48.658;2.328;2023-12-14T14:39:31;9.60;99.90
70550;DHT22;58101;48.658;2.328;2023-12-14T14:41:57;9.60;99.90
70550;DHT22;58101;48.658;2.328;2023-12-14T14:44:23;9.50;99.90
70550;DHT22;58101;48.658;2.328;2023-12-14T14:46:49;9.60;99.90
70550;DHT22;58101;48.658;2.328;2023-12-14T14:49:15;9.50;99.90
70550;DHT22;58101;48.658;2.328;2023-12-14T14:51:40;9.50;99.90
70550;DHT22;58101;48.658;2.328;2023-12-14T14:54:06;9.50;99.90
70550;DHT22;58101;48.658;2.328;2023-12-14T14:56:31;9.50;99.90
70550;DHT22;58101;48.658;2.328;2023-12-14T14:58:57;9.50;99.90
70550;DHT22;58101;48.658;2.328;2023-12-14T15:01:22;9.50;99.90
70550;DHT22;58101;48.658;2.328;2023-12-14T15:03:48;9.50;99.90
70550;DHT22;58101;48.658;2.328;2023-12-14T15:06:14;9.50;99.90
70550;DHT22;58101;48.658;2.328;2023-12-14T15:08:39;9.40;99.90
70550;DHT22;58101;48.658;2.328;2023-12-14T15:11:05;9.30;99.90
70550;DHT22;58101;48.658;2.328;2023-12-14T15:13:33;9.30;99.90
70550;DHT22;58101;48.658;2.328;2023-12-14T15:15:59;9.30;99.90
70550;DHT22;58101;48.658;2.328;2023-12-14T15:18:25;9.20;99.90
70550;DHT22;58101;48.658;2.328;2023-12-14T15:20:50;9.20;99.90
70550;DHT22;58101;48.658;2.328;2023-12-14T15:23:18;9.10;99.90
70550;DHT22;58101;48.658;2.328;2023-12-14T15:25:44;9.10;99.90
70550;DHT22;58101;48.658;2.328;2023-12-14T15:28:10;9.10;99.90
70550;DHT22;58101;48.658;2.328;2023-12-14T15:30:35;9.20;99.90
70550;DHT22;58101;48.658;2.328;2023-12-14T15:33:01;9.10;99.90
70550;DHT22;58101;48.658;2.328;2023-12-14T15:35:27;9.00;99.90
70550;DHT22;58101;48.658;2.328;2023-12-14T15:37:54;9.00;99.90
70550;DHT22;58101;48.658;2.328;2023-12-14T15:40:19;9.00;99.90
70550;DHT22;58101;48.658;2.328;2023-12-14T15:42:45;9.00;99.90
70550;DHT22;58101;48.658;2.328;2023-12-14T15:45:12;9.00;99.90